Thursday, September 20, 2018, 12:29 PM EDT
Back to Local

K1P1, Plymouth, Plymouth Municipal Airport

Location: Plymouth, NH, United States Lat: 43.779
Local Time: 12:29 PM EDT (16:29 GMT) Lon: -71.754
Time Zone: US/Eastern Elev: 505 ft

Show me the last for .
Show Decoded

2018-09-20 12:15 METAR K1P1 201615Z AUTO 00000KT 10SM SCT034 OVC046 16/11 A3027 RMK AO2 T01630114
                 =
2018-09-20 11:55 METAR K1P1 201555Z AUTO 00000KT 10SM SCT033 OVC050 16/12 A3027 RMK AO2 T01630115
                 =
2018-09-20 11:35 METAR K1P1 201535Z AUTO 00000KT 10SM SCT018 SCT033 OVC050 16/11 A3028 RMK AO2
                 T01600114 =
2018-09-20 11:15 METAR K1P1 201515Z AUTO 00000KT 10SM SCT018 BKN050 16/12 A3028 RMK AO2 T01610119
                 =
2018-09-20 10:55 METAR K1P1 201455Z AUTO 00000KT 10SM OVC050 16/11 A3027 RMK AO2 T01560111 =
2018-09-20 10:35 METAR K1P1 201435Z AUTO 00000KT 10SM SCT025 SCT038 BKN050 16/11 A3027 RMK AO2
                 T01560109 =
2018-09-20 10:15 METAR K1P1 201415Z AUTO 00000KT 10SM SCT019 BKN026 OVC037 16/11 A3028 RMK AO2
                 T01550112 =
2018-09-20 09:55 METAR K1P1 201355Z AUTO 00000KT 10SM BKN019 OVC027 16/12 A3027 RMK AO2 T01560115
                 =
2018-09-20 09:35 METAR K1P1 201335Z AUTO 00000KT 10SM SCT017 BKN027 OVC050 15/11 A3027 RMK AO2
                 T01500110 =
2018-09-20 09:15 METAR K1P1 201315Z AUTO 00000KT 10SM SCT017 OVC050 15/11 A3026 RMK AO2 T01500113
                 =
2018-09-20 08:55 METAR K1P1 201255Z AUTO 00000KT 10SM SCT021 BKN042 OVC050 15/11 A3026 RMK AO2
                 T01450113 =
2018-09-20 08:35 METAR K1P1 201235Z AUTO 00000KT 10SM BKN021 OVC026 14/11 A3026 RMK AO2 T01400113
                 =
2018-09-20 08:15 METAR K1P1 201215Z AUTO 00000KT 10SM OVC021 14/12 A3026 RMK AO2 T01370115 =
2018-09-20 07:55 METAR K1P1 201155Z AUTO 00000KT 10SM OVC021 14/12 A3023 RMK AO2 T01360115 10136
                 20130 =
2018-09-20 07:35 METAR K1P1 201135Z AUTO 00000KT 10SM OVC021 13/11 A3023 RMK AO2 T01330112 =
2018-09-20 07:15 METAR K1P1 201115Z AUTO 00000KT 10SM OVC019 13/11 A3022 RMK AO2 T01310112 =
2018-09-20 06:55 METAR K1P1 201055Z AUTO 00000KT 10SM OVC019 13/11 A3020 RMK AO2 T01300114 =
2018-09-20 06:35 METAR K1P1 201035Z AUTO 00000KT 10SM OVC021 13/11 A3019 RMK AO2 T01310114 =
2018-09-20 06:15 METAR K1P1 201015Z AUTO 00000KT 10SM OVC021 13/12 A3019 RMK AO2 T01310116 =
2018-09-20 05:55 METAR K1P1 200955Z AUTO 00000KT 10SM OVC021 13/12 A3018 RMK AO2 T01300116 =
2018-09-20 05:35 METAR K1P1 200935Z AUTO 00000KT 10SM OVC021 13/12 A3018 RMK AO2 T01320118 =
2018-09-20 05:15 METAR K1P1 200915Z AUTO 00000KT 10SM OVC021 13/12 A3017 RMK AO2 T01320117 =
2018-09-20 04:55 METAR K1P1 200855Z AUTO 00000KT 10SM OVC021 13/12 A3017 RMK AO2 T01300116 =
2018-09-20 04:35 METAR K1P1 200835Z AUTO 00000KT 10SM BKN021 OVC046 13/12 A3016 RMK AO2 T01310117
                 =
2018-09-20 04:15 METAR K1P1 200815Z AUTO 00000KT 10SM OVC046 13/12 A3016 RMK AO2 T01310117 =
2018-09-20 03:55 METAR K1P1 200755Z AUTO 00000KT 10SM OVC046 13/12 A3016 RMK AO2 T01300117 =
2018-09-20 03:35 METAR K1P1 200735Z AUTO 00000KT 10SM SCT025 OVC046 13/12 A3016 RMK AO2 T01320120
                 =
2018-09-20 03:15 METAR K1P1 200715Z AUTO 00000KT 10SM SCT025 BKN039 OVC044 13/12 A3016 RMK AO2
                 T01330122 =
2018-09-20 02:55 METAR K1P1 200655Z AUTO 00000KT 10SM BKN025 OVC035 14/12 A3016 RMK AO2 T01350123
                 =
2018-09-20 02:35 METAR K1P1 200635Z AUTO 00000KT 10SM BKN025 BKN030 OVC036 14/12 A3016 RMK AO2
                 T01350123 =
2018-09-20 02:15 METAR K1P1 200615Z AUTO 00000KT 10SM SCT025 BKN036 OVC050 14/12 A3016 RMK AO2
                 T01350122 =
2018-09-20 01:55 METAR K1P1 200555Z AUTO 00000KT 10SM SCT038 BKN050 14/12 A3015 RMK AO2 T01350120
                 10145 20135 =
2018-09-20 01:35 METAR K1P1 200535Z AUTO 00000KT 10SM BKN038 OVC050 14/12 A3014 RMK AO2 T01400120
                 =
2018-09-20 01:15 METAR K1P1 200515Z AUTO 00000KT 10SM OVC036 14/12 A3015 RMK AO2 T01400121 =
2018-09-20 00:55 METAR K1P1 200455Z AUTO 00000KT 10SM OVC036 14/12 A3014 RMK AO2 T01390124 =
2018-09-20 00:35 METAR K1P1 200435Z AUTO 00000KT 10SM OVC034 14/13 A3014 RMK AO2 T01400126 =
2018-09-20 00:15 METAR K1P1 200415Z AUTO 00000KT 10SM SCT024 OVC032 14/13 A3013 RMK AO2 T01400127
                 =
2018-09-19 23:55 METAR K1P1 200355Z AUTO 00000KT 10SM SCT022 OVC030 14/13 A3014 RMK AO2 T01400126
                 402010138 =
2018-09-19 23:35 METAR K1P1 200335Z AUTO 00000KT 10SM BKN018 BKN024 OVC030 14/13 A3014 RMK AO2
                 T01400125 =
2018-09-19 23:15 METAR K1P1 200315Z AUTO 00000KT 10SM -DZ OVC020 14/12 A3013 RMK AO2 T01410123 =
2018-09-19 22:55 METAR K1P1 200255Z AUTO 00000KT 7SM RA OVC020 15/12 A3012 RMK AO2 T01450120 =
2018-09-19 22:35 METAR K1P1 200235Z AUTO 00000KT 10SM OVC024 14/12 A3012 RMK AO2 T01430122 =
2018-09-19 22:15 METAR K1P1 200215Z AUTO 00000KT 10SM BKN024 OVC030 14/12 A3011 RMK AO2 T01440124
                 =
2018-09-19 21:55 METAR K1P1 200155Z AUTO 00000KT 10SM BKN022 OVC030 15/12 A3011 RMK AO2 T01450121
                 =
2018-09-19 21:35 METAR K1P1 200135Z AUTO 00000KT 10SM BKN028 OVC036 15/12 A3010 RMK AO2 T01450122
                 =
2018-09-19 18:15 METAR K1P1 192215Z AUTO 00000KT 10SM SCT023 BKN047 17/14 A3005 RMK AO2 T01720135
                 =
2018-09-19 17:55 METAR K1P1 192155Z AUTO 10004KT 10SM BKN049 18/13 A3002 RMK AO2 T01750133 =
2018-09-19 17:35 METAR K1P1 192135Z AUTO 10003KT 10SM OVC049 18/14 A3002 RMK AO2 T01800137 =
2018-09-19 17:15 METAR K1P1 192115Z AUTO 09003KT 10SM OVC047 18/14 A3002 RMK AO2 T01760139 =
2018-09-19 16:55 METAR K1P1 192055Z AUTO 09004KT 10SM OVC047 18/14 A3001 RMK AO2 T01770138 =
2018-09-19 16:35 METAR K1P1 192035Z AUTO 10004KT 10SM OVC047 18/14 A3000 RMK AO2 T01800139 =
2018-09-19 16:15 METAR K1P1 192015Z AUTO 11003KT 10SM OVC047 18/14 A2999 RMK AO2 T01830141 =
2018-09-19 15:55 METAR K1P1 191955Z AUTO 10005KT 10SM OVC045 19/14 A2998 RMK AO2 T01850141 =
2018-09-19 15:35 METAR K1P1 191935Z AUTO 08003KT 10SM OVC045 19/15 A2998 RMK AO2 T01900145 =
2018-09-19 15:15 METAR K1P1 191915Z AUTO 08005KT 10SM OVC045 19/15 A2997 RMK AO2 T01900147 =
2018-09-19 14:55 METAR K1P1 191855Z AUTO 07005KT 10SM OVC045 20/15 A2997 RMK AO2 T01980148 =
2018-09-19 14:35 METAR K1P1 191835Z AUTO 10004KT 10SM OVC045 20/15 A2997 RMK AO2 T01980149 =
2018-09-19 14:15 METAR K1P1 191815Z AUTO 08005KT 10SM OVC047 19/15 A2998 RMK AO2 T01920148 =
2018-09-19 13:55 METAR K1P1 191755Z AUTO 08005KT 10SM OVC043 19/15 A2998 RMK AO2 T01900148 10201
                 20156 =
2018-09-19 13:35 METAR K1P1 191735Z AUTO 07006KT 10SM SCT024 OVC043 19/15 A2997 RMK AO2 T01890150
                 =
2018-09-19 13:15 METAR K1P1 191715Z AUTO 10004KT 10SM SCT020 BKN042 OVC048 19/15 A2998 RMK AO2
                 T01900148 =
2018-09-19 12:55 METAR K1P1 191655Z AUTO 09004KT 10SM SCT020 SCT028 BKN048 19/15 A2997 RMK AO2
                 T01900148 =
2018-09-19 12:35 METAR K1P1 191635Z AUTO 07008KT 10SM BKN048 20/15 A2997 RMK AO2 T01980149 =

Support USWX by starting your Amazon purchase here.